Time;durP1;ratioP1;P1;durP2;ratioP2;P2;SDS_P1;SDS_P2;PMS_P1;PMS_P2;Temp;Humidity;BMP_temperature;BMP_pressure;BME280_temperature;BME280_humidity;BME280_pressure;Samples;Min_cycle;Max_cycle;Signal;HPM_P1;HPM_P2
2022/11/18 00:00:51;;;;;;;6.68;2.67;;;9.70;99.90;;;;;;5074189;28;20632;-50
2022/11/18 00:03:17;;;;;;;3.97;2.53;;;9.70;99.90;;;;;;5074552;28;20257;-50
2022/11/18 00:05:51;;;;;;;8.07;2.55;;;9.70;99.90;;;;;;5074183;28;20197;-49
2022/11/18 00:08:16;;;;;;;6.90;2.67;;;9.70;99.90;;;;;;5074240;28;20205;-50
2022/11/18 00:10:42;;;;;;;7.20;2.80;;;9.60;99.90;;;;;;5074053;28;20162;-50
2022/11/18 00:16:10;;;;;;;5.78;2.50;;;9.60;99.90;;;;;;5073958;28;20165;-50
2022/11/18 00:18:36;;;;;;;5.90;2.75;;;9.50;99.90;;;;;;5073942;28;20170;-50
2022/11/18 00:21:07;;;;;;;6.10;1.90;;;9.50;99.90;;;;;;5073895;28;20173;-49
2022/11/18 00:23:33;;;;;;;6.80;2.50;;;9.50;99.90;;;;;;5073912;28;20201;-50
2022/11/18 00:26:25;;;;;;;9.38;2.30;;;9.60;99.90;;;;;;5074046;28;20185;-51
2022/11/18 00:28:50;;;;;;;7.63;2.20;;;9.60;99.90;;;;;;5069164;28;20209;-50
2022/11/18 00:31:16;;;;;;;4.57;1.80;;;9.60;99.90;;;;;;5073816;28;20169;-50
2022/11/18 00:33:41;;;;;;;6.18;1.90;;;9.70;99.90;;;;;;5073628;28;20202;-50
2022/11/18 00:36:10;;;;;;;4.88;1.80;;;9.70;99.90;;;;;;5073109;28;20166;-50
2022/11/18 00:38:35;;;;;;;4.07;1.75;;;9.70;99.90;;;;;;5073626;28;20717;-50
2022/11/18 00:41:12;;;;;;;5.32;1.90;;;9.80;99.90;;;;;;5073750;28;20194;-50
2022/11/18 00:43:38;;;;;;;4.03;1.88;;;9.80;99.90;;;;;;5073486;28;20234;-50
2022/11/18 00:46:05;;;;;;;4.47;1.98;;;9.80;99.90;;;;;;5073415;28;20174;-50
2022/11/18 00:48:31;;;;;;;4.53;1.92;;;9.80;99.90;;;;;;5073784;28;20210;-50
2022/11/18 00:50:58;;;;;;;4.00;1.95;;;9.20;99.90;;;;;;5073859;28;20659;-49
2022/11/18 00:53:25;;;;;;;5.53;2.45;;;9.90;99.90;;;;;;5073296;28;20174;-50
2022/11/18 00:55:51;;;;;;;6.85;2.28;;;9.80;99.90;;;;;;5073235;28;20656;-50
2022/11/18 00:58:17;;;;;;;4.55;2.00;;;9.80;99.90;;;;;;5073330;28;20626;-50
2022/11/18 01:00:44;;;;;;;10.52;1.85;;;9.80;99.90;;;;;;5072941;28;20233;-51
2022/11/18 01:03:11;;;;;;;3.83;1.45;;;9.90;99.90;;;;;;5072989;28;20169;-50
2022/11/18 01:05:38;;;;;;;6.35;2.25;;;9.90;99.90;;;;;;5073073;28;20177;-49
2022/11/18 01:08:04;;;;;;;5.47;1.88;;;9.90;99.90;;;;;;5072937;28;20205;-49
2022/11/18 01:10:30;;;;;;;4.97;1.85;;;9.90;99.90;;;;;;5073186;28;20158;-49
2022/11/18 01:15:41;;;;;;;7.70;2.13;;;10.00;99.90;;;;;;5072787;28;20173;-49
2022/11/18 01:18:07;;;;;;;4.75;2.30;;;10.00;99.90;;;;;;5072666;28;20191;-49
2022/11/18 01:20:33;;;;;;;4.43;1.75;;;10.00;99.90;;;;;;5072705;28;20622;-49
2022/11/18 01:22:59;;;;;;;4.72;1.90;;;10.00;99.90;;;;;;5072823;28;20170;-49
2022/11/18 01:25:25;;;;;;;4.05;1.85;;;10.00;99.90;;;;;;5072898;28;20250;-49
2022/11/18 01:27:51;;;;;;;4.25;1.70;;;10.00;99.90;;;;;;5072533;28;20229;-49
2022/11/18 01:30:17;;;;;;;5.35;1.77;;;10.00;99.90;;;;;;5072555;28;20165;-49
2022/11/18 01:32:43;;;;;;;9.27;2.00;;;10.00;99.90;;;;;;5072472;28;20174;-50
2022/11/18 01:35:10;;;;;;;4.75;2.03;;;10.00;99.90;;;;;;5072397;28;20180;-49
2022/11/18 01:37:35;;;;;;;3.65;1.60;;;10.00;99.90;;;;;;5072444;28;20174;-49
2022/11/18 01:40:02;;;;;;;5.85;2.03;;;10.00;99.90;;;;;;5072331;28;20173;-50
2022/11/18 01:42:27;;;;;;;8.65;1.98;;;10.00;99.90;;;;;;5072724;28;20238;-50
2022/11/18 01:45:03;;;;;;;8.65;3.00;;;10.00;99.90;;;;;;5072312;28;20166;-49
2022/11/18 01:47:36;;;;;;;7.15;1.95;;;10.00;99.90;;;;;;5072670;28;20221;-49
2022/11/18 01:50:03;;;;;;;3.92;1.42;;;10.10;99.90;;;;;;5072162;28;20166;-48
2022/11/18 01:52:30;;;;;;;4.10;1.77;;;10.00;99.90;;;;;;5072461;28;20252;-49
2022/11/18 01:55:02;;;;;;;8.82;2.22;;;10.10;99.90;;;;;;5072306;28;20165;-49
2022/11/18 01:57:31;;;;;;;4.75;1.95;;;10.10;99.90;;;;;;5072524;28;20162;-52
2022/11/18 01:59:59;;;;;;;6.75;2.45;;;10.10;99.90;;;;;;5072151;28;20255;-50
2022/11/18 02:02:25;;;;;;;4.80;2.90;;;10.20;99.90;;;;;;5072012;28;20169;-51
2022/11/18 02:04:53;;;;;;;7.88;3.25;;;10.20;99.90;;;;;;5072022;28;20161;-49
2022/11/18 02:07:21;;;;;;;4.70;2.40;;;10.20;99.90;;;;;;5071878;28;20207;-49
2022/11/18 02:09:46;;;;;;;7.93;2.65;;;10.20;99.90;;;;;;5071908;28;20162;-49
2022/11/18 02:12:12;;;;;;;9.18;2.72;;;10.20;99.90;;;;;;5072161;28;20216;-48
2022/11/18 02:14:44;;;;;;;4.72;2.58;;;10.20;99.90;;;;;;5072064;28;20174;-49
2022/11/18 02:18:00;;;;;;;8.98;2.58;;;10.20;99.90;;;;;;5072123;28;20165;-49
2022/11/18 02:20:44;;;;;;;5.15;2.33;;;10.10;99.90;;;;;;5017055;28;20266;-49
2022/11/18 02:23:47;;;;;;;6.15;2.30;;;10.20;99.90;;;;;;5071778;28;20245;-50
2022/11/18 02:26:32;;;;;;;6.32;2.47;;;10.20;99.90;;;;;;5033293;28;20182;-49
2022/11/18 02:29:08;;;;;;;4.97;2.88;;;10.10;99.90;;;;;;5021112;28;20284;-49
2022/11/18 02:31:43;;;;;;;7.65;2.67;;;10.10;99.90;;;;;;5071896;28;20173;-49
2022/11/18 02:34:08;;;;;;;6.57;2.83;;;10.10;99.90;;;;;;5071715;28;20161;-49
2022/11/18 02:36:43;;;;;;;8.48;2.67;;;10.10;99.90;;;;;;5071609;28;20181;-49
2022/11/18 02:39:29;;;;;;;6.22;2.70;;;10.10;99.90;;;;;;5071611;28;20544;-49
2022/11/18 02:41:58;;;;;;;5.63;2.42;;;10.10;99.90;;;;;;5071631;28;20176;-49
2022/11/18 02:44:25;;;;;;;6.30;2.85;;;10.00;99.90;;;;;;5071589;28;20170;-49
2022/11/18 02:46:56;;;;;;;7.68;2.00;;;10.00;99.90;;;;;;5071602;28;20210;-49
2022/11/18 02:49:33;;;;;;;5.68;2.10;;;10.00;99.90;;;;;;5071472;28;20173;-49
2022/11/18 02:52:00;;;;;;;5.95;2.05;;;10.00;99.90;;;;;;5072145;28;20172;-49
2022/11/18 02:54:28;;;;;;;7.75;2.30;;;9.90;99.90;;;;;;5072024;28;20170;-49
2022/11/18 02:56:54;;;;;;;8.38;2.92;;;9.90;99.90;;;;;;5071385;28;20172;-50
2022/11/18 02:59:20;;;;;;;6.25;3.80;;;9.90;99.90;;;;;;5074975;28;20263;-49
2022/11/18 03:01:46;;;;;;;8.57;2.90;;;9.90;99.90;;;;;;5075945;28;20170;-49
2022/11/18 03:04:13;;;;;;;9.23;3.25;;;9.90;99.90;;;;;;5075318;28;20196;-49
2022/11/18 03:06:42;;;;;;;10.20;3.67;;;9.90;99.90;;;;;;5075496;28;20572;-49
2022/11/18 03:09:26;;;;;;;8.30;3.10;;;9.90;99.90;;;;;;5075164;28;20514;-49
2022/11/18 03:12:17;;;;;;;5.32;2.72;;;9.90;99.90;;;;;;5075444;28;20527;-49
2022/11/18 03:14:46;;;;;;;5.68;3.03;;;9.90;99.90;;;;;;5075167;28;20166;-49
2022/11/18 03:17:20;;;;;;;10.63;3.53;;;9.90;99.90;;;;;;5075292;28;20170;-49
2022/11/18 03:20:03;;;;;;;7.80;2.92;;;9.90;99.90;;;;;;5075026;28;20186;-49
2022/11/18 03:22:35;;;;;;;9.45;3.45;;;9.90;99.90;;;;;;5074814;28;20162;-49
2022/11/18 03:25:12;;;;;;;10.23;4.05;;;9.90;99.90;;;;;;5074616;28;20172;-49
2022/11/18 03:27:59;;;;;;;10.10;4.65;;;9.90;99.90;;;;;;5074809;28;20197;-49
2022/11/18 03:30:25;;;;;;;8.95;4.10;;;9.90;99.90;;;;;;5074839;28;20193;-48
2022/11/18 03:32:58;;;;;;;15.98;5.00;;;9.90;99.90;;;;;;5056995;28;20216;-49
2022/11/18 03:35:28;;;;;;;12.05;4.75;;;9.90;99.90;;;;;;5074965;28;20506;-50
2022/11/18 03:38:14;;;;;;;11.27;4.15;;;9.90;99.90;;;;;;5074653;28;20162;-49
2022/11/18 03:40:45;;;;;;;12.75;3.97;;;9.90;99.90;;;;;;5074875;28;20249;-49
2022/11/18 03:43:19;;;;;;;12.48;4.88;;;9.90;99.90;;;;;;5074846;28;20215;-49
2022/11/18 03:45:49;;;;;;;7.50;3.90;;;9.90;99.90;;;;;;5074734;28;20177;-49
2022/11/18 03:48:23;;;;;;;11.18;4.45;;;9.90;99.90;;;;;;5074559;28;20220;-49
2022/11/18 03:50:57;;;;;;;10.43;3.80;;;9.90;99.90;;;;;;5074468;28;20176;-49
2022/11/18 03:53:27;;;;;;;10.57;3.53;;;9.90;99.90;;;;;;5074429;28;20190;-49
2022/11/18 03:56:00;;;;;;;15.90;3.60;;;9.90;99.90;;;;;;5074337;28;20170;-49
2022/11/18 03:58:44;;;;;;;12.02;3.92;;;9.90;99.90;;;;;;5074649;28;20629;-49
2022/11/18 04:01:23;;;;;;;8.98;2.80;;;9.90;99.90;;;;;;5074104;28;20218;-49
2022/11/18 04:03:49;;;;;;;11.27;3.25;;;9.90;99.90;;;;;;5074259;28;20170;-49
2022/11/18 04:06:26;;;;;;;11.40;2.97;;;9.90;99.90;;;;;;5074134;28;20188;-49
2022/11/18 04:08:58;;;;;;;12.40;3.35;;;9.90;99.90;;;;;;5073304;28;20296;-49
2022/11/18 04:14:19;;;;;;;8.75;3.13;;;9.90;99.90;;;;;;5074347;28;20169;-49
2022/11/18 04:16:49;;;;;;;7.30;3.03;;;9.90;99.90;;;;;;5073926;28;20629;-49
2022/11/18 04:19:15;;;;;;;9.38;3.03;;;9.90;99.90;;;;;;5073986;28;20219;-49
2022/11/18 04:21:40;;;;;;;7.55;1.80;;;9.90;99.90;;;;;;5073798;28;20622;-49
2022/11/18 04:24:06;;;;;;;7.53;2.15;;;9.90;99.90;;;;;;5073869;28;20174;-49
2022/11/18 04:26:32;;;;;;;5.68;1.90;;;9.90;99.90;;;;;;5073699;28;20249;-49
2022/11/18 04:28:57;;;;;;;4.10;1.80;;;9.90;99.90;;;;;;5074421;28;20217;-49
2022/11/18 04:31:23;;;;;;;8.82;1.70;;;9.80;99.90;;;;;;5073960;28;20193;-49
2022/11/18 04:33:48;;;;;;;6.38;1.88;;;9.90;99.90;;;;;;5073820;28;20261;-49
2022/11/18 04:36:14;;;;;;;8.38;2.00;;;9.90;99.90;;;;;;5055710;28;20633;-49
2022/11/18 04:38:39;;;;;;;8.50;2.25;;;9.80;99.90;;;;;;5073823;28;20248;-49
2022/11/18 04:41:05;;;;;;;9.35;1.80;;;9.90;99.90;;;;;;5073750;28;20166;-49
2022/11/18 04:43:30;;;;;;;8.32;2.00;;;9.80;99.90;;;;;;5073601;28;20177;-49
2022/11/18 04:45:56;;;;;;;10.80;2.00;;;9.80;99.90;;;;;;5073932;28;20212;-49
2022/11/18 04:48:21;;;;;;;4.57;1.98;;;9.80;99.90;;;;;;5073210;28;20575;-49
2022/11/18 04:50:47;;;;;;;11.98;3.22;;;9.90;99.90;;;;;;5073032;28;20213;-49
2022/11/18 04:53:13;;;;;;;4.78;1.98;;;9.80;99.90;;;;;;5073266;28;20166;-49
2022/11/18 04:55:38;;;;;;;4.40;1.63;;;9.80;99.90;;;;;;5073163;28;20166;-49
2022/11/18 04:58:04;;;;;;;4.53;1.90;;;9.80;99.90;;;;;;5073285;28;20177;-49
2022/11/18 05:00:29;;;;;;;8.15;1.80;;;9.80;99.90;;;;;;5073268;28;20293;-48
2022/11/18 05:02:55;;;;;;;6.60;1.75;;;11.10;99.90;;;;;;5073469;28;20194;-48
2022/11/18 05:05:20;;;;;;;4.03;1.70;;;9.70;99.90;;;;;;5073086;28;20170;-48
2022/11/18 05:07:46;;;;;;;7.50;2.25;;;9.70;99.90;;;;;;5072754;28;20202;-50
2022/11/18 05:10:11;;;;;;;7.88;1.90;;;9.70;99.90;;;;;;5072994;28;20219;-49
2022/11/18 05:12:49;;;;;;;11.15;2.40;;;9.70;99.90;;;;;;5072750;28;20177;-49
2022/11/18 05:15:16;;;;;;;9.20;2.30;;;9.70;99.90;;;;;;5072763;28;20169;-49
2022/11/18 05:17:41;;;;;;;3.55;1.67;;;9.70;99.90;;;;;;5072774;28;20174;-49
2022/11/18 05:20:08;;;;;;;6.28;1.75;;;9.60;99.90;;;;;;5072506;28;20169;-49
2022/11/18 05:22:33;;;;;;;8.18;2.08;;;9.60;99.90;;;;;;5072700;28;20182;-48
2022/11/18 05:24:59;;;;;;;2.83;1.58;;;9.60;99.90;;;;;;5072983;28;20158;-48
2022/11/18 05:27:25;;;;;;;5.30;1.58;;;10.60;99.90;;;;;;5072883;28;20216;-49
2022/11/18 05:29:51;;;;;;;6.15;2.00;;;9.60;99.90;;;;;;5072564;28;20223;-49
2022/11/18 05:32:17;;;;;;;6.55;1.80;;;9.50;99.90;;;;;;5072869;28;20273;-50
2022/11/18 05:34:43;;;;;;;2.45;1.42;;;9.60;99.90;;;;;;5072528;28;20672;-49
2022/11/18 05:37:09;;;;;;;11.02;1.90;;;9.50;99.90;;;;;;5072644;28;20170;-49
2022/11/18 05:39:35;;;;;;;8.32;2.00;;;9.50;99.90;;;;;;5072340;28;20166;-49
2022/11/18 05:44:45;;;;;;;3.28;2.10;;;9.50;99.90;;;;;;5072123;28;20177;-49
2022/11/18 05:47:10;;;;;;;6.15;2.05;;;9.50;99.90;;;;;;5070695;28;20568;-49
2022/11/18 05:49:36;;;;;;;5.05;1.63;;;9.50;99.90;;;;;;5070249;28;20634;-50
2022/11/18 05:52:02;;;;;;;7.45;2.33;;;9.50;99.90;;;;;;5070599;28;20170;-49
2022/11/18 05:54:28;;;;;;;4.38;1.52;;;9.50;99.90;;;;;;5071973;28;20170;-49
2022/11/18 05:56:54;;;;;;;5.65;1.90;;;9.50;99.90;;;;;;5071641;28;20176;-49
2022/11/18 05:59:20;;;;;;;4.32;2.20;;;9.40;99.90;;;;;;5071584;28;20220;-49
2022/11/18 06:01:53;;;;;;;5.60;1.80;;;9.50;99.90;;;;;;5071868;28;20178;-52
2022/11/18 06:04:29;;;;;;;6.80;1.92;;;9.50;99.90;;;;;;5071990;28;20525;-52
2022/11/18 06:07:02;;;;;;;2.75;1.75;;;9.40;99.90;;;;;;5072224;28;20276;-52
2022/11/18 06:09:34;;;;;;;5.78;1.70;;;9.50;99.90;;;;;;5072263;28;20166;-52
2022/11/18 06:12:02;;;;;;;8.60;1.83;;;9.40;99.90;;;;;;5071947;28;20158;-49
2022/11/18 06:14:34;;;;;;;3.90;1.60;;;9.50;99.90;;;;;;5072413;28;20177;-52
2022/11/18 06:17:03;;;;;;;5.93;1.92;;;9.50;99.90;;;;;;5071366;28;20177;-49
2022/11/18 06:19:30;;;;;;;5.30;2.15;;;9.40;99.90;;;;;;5071878;28;20169;-50
2022/11/18 06:21:55;;;;;;;5.97;2.28;;;9.40;99.90;;;;;;5071550;28;20166;-51
2022/11/18 06:24:21;;;;;;;6.75;2.22;;;9.40;99.90;;;;;;5071234;28;20191;-52
2022/11/18 06:26:47;;;;;;;6.95;2.00;;;9.40;99.90;;;;;;5071005;28;20177;-52
2022/11/18 06:29:16;;;;;;;5.47;2.20;;;9.40;99.90;;;;;;5071399;28;20199;-52
2022/11/18 06:31:41;;;;;;;7.30;2.20;;;9.40;99.90;;;;;;5071169;28;20565;-52
2022/11/18 06:34:07;;;;;;;8.05;1.83;;;9.40;99.90;;;;;;5070633;28;20185;-51
2022/11/18 06:36:32;;;;;;;8.02;2.03;;;9.40;99.90;;;;;;5053575;28;20665;-52
2022/11/18 06:39:03;;;;;;;8.63;2.30;;;9.40;99.90;;;;;;5071897;28;20158;-51
2022/11/18 06:41:28;;;;;;;7.85;2.78;;;9.40;99.90;;;;;;5072179;28;20174;-52
2022/11/18 06:43:54;;;;;;;8.65;2.45;;;9.40;99.90;;;;;;5071523;28;20158;-52
2022/11/18 06:49:03;;;;;;;5.22;1.90;;;9.40;99.90;;;;;;5071660;28;20185;-52
2022/11/18 06:51:30;;;;;;;5.28;1.80;;;9.40;99.90;;;;;;5071775;28;20170;-49
2022/11/18 06:53:56;;;;;;;11.27;2.17;;;9.40;99.90;;;;;;5071824;28;20162;-52
2022/11/18 06:56:22;;;;;;;6.70;2.15;;;9.40;99.90;;;;;;5071447;28;20586;-52
2022/11/18 06:58:56;;;;;;;10.32;1.88;;;9.40;99.90;;;;;;5071596;28;20178;-52
2022/11/18 07:01:24;;;;;;;6.03;2.20;;;9.50;99.90;;;;;;5071271;28;20221;-52
2022/11/18 07:03:50;;;;;;;9.48;2.08;;;9.40;99.90;;;;;;5071577;28;20181;-52
2022/11/18 07:06:21;;;;;;;5.00;1.95;;;9.40;99.90;;;;;;5071548;28;20166;-52
2022/11/18 07:08:47;;;;;;;8.45;2.03;;;9.40;99.90;;;;;;5071038;28;20229;-52
2022/11/18 07:11:15;;;;;;;6.15;2.25;;;9.50;99.90;;;;;;5071339;28;20163;-52
2022/11/18 07:13:41;;;;;;;6.68;2.33;;;9.50;99.90;;;;;;5071270;28;20176;-52
2022/11/18 07:16:12;;;;;;;6.03;2.10;;;9.50;99.90;;;;;;5071333;28;20713;-52
2022/11/18 07:18:40;;;;;;;8.80;2.10;;;9.50;99.90;;;;;;5071529;28;20275;-52
2022/11/18 07:21:11;;;;;;;5.60;2.15;;;9.50;99.90;;;;;;5071245;28;20216;-52
2022/11/18 07:23:37;;;;;;;8.40;2.25;;;9.50;99.90;;;;;;5071055;28;20166;-52
2022/11/18 07:26:02;;;;;;;4.45;2.15;;;9.50;99.90;;;;;;5071168;28;20599;-50
2022/11/18 07:28:29;;;;;;;7.13;2.20;;;9.50;99.90;;;;;;5071424;28;20202;-52
2022/11/18 07:31:05;;;;;;;6.47;2.60;;;9.10;99.90;;;;;;5071370;28;20629;-51
2022/11/18 07:33:31;;;;;;;10.27;2.83;;;9.50;99.90;;;;;;5070992;28;20199;-51
2022/11/18 07:36:15;;;;;;;5.78;2.53;;;9.50;99.90;;;;;;5071473;28;20184;-52
2022/11/18 07:38:41;;;;;;;4.00;2.13;;;9.50;99.90;;;;;;5070957;28;20199;-52
2022/11/18 07:41:15;;;;;;;4.70;2.17;;;9.50;99.90;;;;;;5071050;28;20200;-52
2022/11/18 07:43:42;;;;;;;5.05;2.28;;;9.60;99.90;;;;;;5071793;28;20172;-51
2022/11/18 07:46:13;;;;;;;5.38;2.60;;;9.60;99.90;;;;;;5074613;28;20158;-52
2022/11/18 07:48:40;;;;;;;5.47;2.55;;;9.60;99.90;;;;;;5074387;28;20766;-51
2022/11/18 07:51:06;;;;;;;7.43;2.13;;;9.50;99.90;;;;;;5074451;28;20176;-52
2022/11/18 07:53:33;;;;;;;10.45;2.85;;;9.50;99.90;;;;;;5074443;28;20261;-52
2022/11/18 07:55:59;;;;;;;9.18;2.33;;;9.60;99.90;;;;;;5074676;28;20217;-51
2022/11/18 07:58:24;;;;;;;5.32;3.00;;;9.50;99.90;;;;;;5074299;28;20173;-52
2022/11/18 08:00:50;;;;;;;5.35;2.15;;;9.60;99.90;;;;;;5074181;28;20213;-52
2022/11/18 08:03:15;;;;;;;9.38;2.78;;;9.50;99.90;;;;;;5074270;28;20253;-51
2022/11/18 08:05:41;;;;;;;8.65;2.58;;;9.50;99.90;;;;;;5074227;28;20169;-52
2022/11/18 08:08:07;;;;;;;4.70;2.15;;;9.50;99.90;;;;;;5074065;28;20620;-51
2022/11/18 08:10:32;;;;;;;4.50;2.05;;;9.50;99.90;;;;;;5074013;28;20169;-52
2022/11/18 08:12:58;;;;;;;7.05;2.53;;;9.60;99.90;;;;;;5074390;28;20166;-52
2022/11/18 08:15:24;;;;;;;7.05;2.30;;;9.50;99.90;;;;;;5074579;28;20249;-52
2022/11/18 08:17:49;;;;;;;8.85;2.20;;;9.50;99.90;;;;;;5073963;28;20637;-52
2022/11/18 08:20:15;;;;;;;7.57;2.65;;;9.50;99.90;;;;;;5073950;28;20173;-51
2022/11/18 08:22:41;;;;;;;7.95;2.75;;;9.60;99.90;;;;;;5073972;28;20184;-50
2022/11/18 08:25:07;;;;;;;7.50;2.72;;;9.60;99.90;;;;;;5073843;28;20205;-52
2022/11/18 08:27:32;;;;;;;5.72;2.38;;;9.60;99.90;;;;;;5074067;28;20226;-52
2022/11/18 08:29:58;;;;;;;5.30;2.28;;;9.70;99.90;;;;;;5074163;28;20638;-52
2022/11/18 08:32:23;;;;;;;5.47;1.98;;;9.80;99.90;;;;;;5074001;28;20192;-52
2022/11/18 08:34:50;;;;;;;6.70;2.40;;;9.80;99.90;;;;;;5073729;28;20197;-52
2022/11/18 08:37:16;;;;;;;5.90;2.38;;;9.90;99.90;;;;;;5073762;28;20178;-51
2022/11/18 08:39:41;;;;;;;8.82;2.65;;;9.90;99.90;;;;;;5073536;28;20629;-50
2022/11/18 08:42:08;;;;;;;12.57;2.78;;;9.90;99.90;;;;;;5071528;28;20178;-51
2022/11/18 08:44:34;;;;;;;7.28;2.40;;;10.10;99.90;;;;;;5071677;28;20162;-51
2022/11/18 08:47:00;;;;;;;8.13;2.40;;;10.00;99.90;;;;;;5053770;28;20240;-50
2022/11/18 08:49:27;;;;;;;6.72;2.30;;;10.10;99.90;;;;;;5052200;28;20182;-52
2022/11/18 08:51:52;;;;;;;8.50;2.63;;;10.10;99.90;;;;;;5052151;28;20167;-52
2022/11/18 08:54:18;;;;;;;8.57;2.53;;;10.10;99.90;;;;;;5051654;28;20555;-51
2022/11/18 08:56:43;;;;;;;10.38;2.53;;;10.00;99.90;;;;;;5050827;28;20158;-51
2022/11/18 08:59:09;;;;;;;7.32;2.58;;;10.10;99.90;;;;;;5051346;28;20256;-53
2022/11/18 09:01:36;;;;;;;5.32;2.45;;;10.10;99.90;;;;;;5051550;28;20169;-56
2022/11/18 09:04:02;;;;;;;9.23;3.25;;;10.10;99.90;;;;;;5051485;28;20412;-55
2022/11/18 09:06:28;;;;;;;8.65;2.72;;;10.10;99.90;;;;;;5051691;28;20167;-54
2022/11/18 09:08:54;;;;;;;8.80;2.63;;;10.10;99.90;;;;;;5051716;28;20272;-51
2022/11/18 09:11:23;;;;;;;6.80;2.13;;;10.10;99.90;;;;;;5051359;28;20285;-49
2022/11/18 09:13:54;;;;;;;6.03;2.60;;;10.00;99.90;;;;;;5051236;28;20159;-48
2022/11/18 09:16:22;;;;;;;8.30;2.33;;;10.00;99.90;;;;;;5051088;28;20173;-48
2022/11/18 09:18:49;;;;;;;4.38;2.03;;;9.90;99.90;;;;;;5051173;28;20224;-47
2022/11/18 09:21:15;;;;;;;8.30;2.63;;;9.90;99.90;;;;;;5050832;28;20650;-48
2022/11/18 09:23:41;;;;;;;10.05;1.98;;;9.90;99.90;;;;;;5050757;28;20310;-47
2022/11/18 09:26:12;;;;;;;6.82;2.13;;;9.90;99.90;;;;;;5050916;28;20163;-47
2022/11/18 09:28:38;;;;;;;3.25;2.38;;;9.90;99.90;;;;;;5050856;28;20814;-50
2022/11/18 09:31:08;;;;;;;7.55;2.65;;;9.90;99.90;;;;;;5051606;28;20546;-47
2022/11/18 09:33:34;;;;;;;6.88;2.03;;;9.90;99.90;;;;;;5051186;28;20599;-53
2022/11/18 09:36:00;;;;;;;5.63;1.80;;;9.90;99.90;;;;;;5051224;28;20251;-51
2022/11/18 09:38:28;;;;;;;4.20;2.10;;;10.00;99.90;;;;;;5051178;28;20634;-48
2022/11/18 09:41:09;;;;;;;7.03;2.20;;;10.00;99.90;;;;;;5051272;28;20224;-50
2022/11/18 09:44:02;;;;;;;5.75;2.10;;;10.00;99.90;;;;;;5050569;28;20557;-51
2022/11/18 09:46:33;;;;;;;3.88;1.50;;;10.00;99.90;;;;;;5051297;28;20220;-52
2022/11/18 09:49:13;;;;;;;3.70;1.58;;;10.00;99.90;;;;;;5050810;28;20210;-49
2022/11/18 09:51:42;;;;;;;9.93;1.90;;;10.00;99.90;;;;;;5050910;28;20163;-52
2022/11/18 09:54:12;;;;;;;5.15;1.80;;;10.10;99.90;;;;;;5050514;28;20182;-55
2022/11/18 09:56:39;;;;;;;5.50;2.40;;;10.10;99.90;;;;;;5051007;28;20170;-52
2022/11/18 09:59:05;;;;;;;6.32;1.90;;;10.20;99.90;;;;;;5050431;28;20268;-52
2022/11/18 10:01:31;;;;;;;9.00;2.75;;;10.20;99.90;;;;;;5050252;28;20568;-52
2022/11/18 10:03:56;;;;;;;4.45;1.70;;;10.20;99.90;;;;;;5051942;28;20181;-54
2022/11/18 10:06:28;;;;;;;5.88;1.85;;;10.20;99.90;;;;;;5051888;28;20202;-54
2022/11/18 10:09:08;;;;;;;3.47;1.73;;;10.20;99.90;;;;;;5051384;28;20264;-54
2022/11/18 10:12:02;;;;;;;5.50;1.90;;;10.30;99.90;;;;;;5050818;28;20173;-54
2022/11/18 10:14:41;;;;;;;10.88;2.95;;;10.30;99.90;;;;;;5050548;28;20166;-52
2022/11/18 10:17:17;;;;;;;6.47;1.90;;;10.30;99.90;;;;;;5050130;28;20162;-54
2022/11/18 10:20:20;;;;;;;8.05;2.20;;;10.40;99.90;;;;;;5050327;28;20176;-53
2022/11/18 10:22:51;;;;;;;6.03;2.25;;;10.40;99.90;;;;;;5008389;28;20182;-53
2022/11/18 10:25:17;;;;;;;6.13;2.22;;;10.40;99.90;;;;;;5049764;28;20432;-54
2022/11/18 10:27:46;;;;;;;2.70;1.67;;;10.20;99.90;;;;;;5049857;28;20678;-53
2022/11/18 10:30:14;;;;;;;6.35;2.67;;;10.50;99.90;;;;;;5050243;28;20250;-54
2022/11/18 10:33:23;;;;;;;3.42;1.83;;;10.50;99.90;;;;;;5050225;28;20267;-54
2022/11/18 10:35:49;;;;;;;6.10;2.05;;;10.70;99.90;;;;;;5028935;28;20531;-54
2022/11/18 10:38:19;;;;;;;5.88;2.03;;;10.80;99.90;;;;;;5050302;28;20696;-54
2022/11/18 10:40:58;;;;;;;6.13;2.10;;;10.90;99.90;;;;;;5050465;28;20163;-54
2022/11/18 10:43:42;;;;;;;6.55;2.20;;;11.00;99.90;;;;;;5050247;28;20634;-54
2022/11/18 10:46:25;;;;;;;6.78;2.75;;;11.00;99.90;;;;;;5051240;28;20171;-54
2022/11/18 10:49:16;;;;;;;7.35;2.90;;;11.10;99.90;;;;;;5051521;28;20240;-53
2022/11/18 10:51:47;;;;;;;9.90;3.08;;;11.10;99.90;;;;;;5051495;28;20579;-52
2022/11/18 10:54:22;;;;;;;6.28;2.33;;;11.20;99.90;;;;;;5051436;28;20171;-54
2022/11/18 10:57:00;;;;;;;6.82;2.60;;;11.30;99.90;;;;;;5051489;28;20170;-53
2022/11/18 10:59:32;;;;;;;7.55;2.85;;;11.30;99.90;;;;;;5051720;28;20213;-54
2022/11/18 11:02:13;;;;;;;3.47;1.88;;;11.20;99.90;;;;;;5051704;28;20167;-53
2022/11/18 11:04:40;;;;;;;5.40;2.65;;;11.20;99.90;;;;;;5051441;28;20162;-53
2022/11/18 11:07:26;;;;;;;8.60;2.70;;;11.20;99.90;;;;;;5051258;28;20205;-51
2022/11/18 11:10:21;;;;;;;5.93;2.83;;;11.10;99.90;;;;;;5051542;28;20179;-52
2022/11/18 11:12:54;;;;;;;5.13;2.40;;;11.20;99.90;;;;;;5049254;28;20186;-53
2022/11/18 11:15:34;;;;;;;6.47;2.90;;;11.10;99.90;;;;;;5051193;28;20171;-51
2022/11/18 11:21:12;;;;;;;11.52;2.50;;;11.10;99.90;;;;;;4993538;28;20180;-54
2022/11/18 11:23:38;;;;;;;6.80;2.72;;;11.00;99.90;;;;;;5044891;28;20249;-51
2022/11/18 11:27:05;;;;;;;7.30;2.50;;;11.00;99.90;;;;;;5054974;28;20205;-53
2022/11/18 11:29:51;;;;;;;10.13;2.50;;;11.00;99.90;;;;;;4971838;28;20205;-53
2022/11/18 11:32:38;;;;;;;6.03;2.47;;;11.00;99.90;;;;;;5054801;28;20631;-51
2022/11/18 11:35:24;;;;;;;10.35;3.33;;;11.10;99.90;;;;;;5054758;28;20162;-51
2022/11/18 11:38:03;;;;;;;8.70;2.50;;;11.00;99.90;;;;;;5054678;28;20174;-53
2022/11/18 11:40:39;;;;;;;4.43;2.45;;;10.90;99.90;;;;;;5054484;28;20296;-50
2022/11/18 11:43:28;;;;;;;7.43;2.42;;;10.90;99.90;;;;;;5054378;28;20737;-51
2022/11/18 11:46:18;;;;;;;8.48;2.40;;;10.90;99.90;;;;;;5054497;28;20162;-52
2022/11/18 11:49:09;;;;;;;9.52;3.13;;;10.90;99.90;;;;;;5054358;28;20289;-51
2022/11/18 11:52:17;;;;;;;8.43;2.38;;;10.90;99.90;;;;;;5054250;28;20198;-51
2022/11/18 11:54:58;;;;;;;7.72;2.63;;;11.00;99.90;;;;;;5054207;28;20272;-50
2022/11/18 11:57:55;;;;;;;6.78;2.70;;;11.10;99.90;;;;;;5054556;28;20178;-51
2022/11/18 12:00:20;;;;;;;8.32;2.55;;;11.00;99.90;;;;;;5054017;28;20206;-52
2022/11/18 12:03:08;;;;;;;6.47;2.53;;;11.00;99.90;;;;;;5053878;28;20170;-54
2022/11/18 12:05:38;;;;;;;5.72;2.85;;;11.00;99.90;;;;;;5054355;28;20158;-53
2022/11/18 12:08:10;;;;;;;7.68;2.40;;;10.90;99.90;;;;;;5054028;28;20198;-51
2022/11/18 12:10:47;;;;;;;9.40;2.45;;;11.00;99.90;;;;;;5054134;28;20261;-52
2022/11/18 12:14:01;;;;;;;9.95;2.70;;;11.00;99.90;;;;;;5053653;28;20649;-51
2022/11/18 12:16:46;;;;;;;5.57;1.98;;;11.00;99.90;;;;;;5037029;28;20635;-52
2022/11/18 12:19:15;;;;;;;6.55;2.10;;;11.00;99.90;;;;;;5053690;28;20175;-51
2022/11/18 12:21:44;;;;;;;7.57;1.95;;;11.00;99.90;;;;;;5053292;28;20634;-52
2022/11/18 12:24:19;;;;;;;7.43;1.88;;;11.00;99.90;;;;;;5053932;28;20174;-52
2022/11/18 12:26:46;;;;;;;6.40;1.85;;;11.10;99.90;;;;;;5053496;28;20170;-53
2022/11/18 12:29:18;;;;;;;5.80;1.80;;;11.10;99.90;;;;;;5053468;28;20203;-51
2022/11/18 12:31:47;;;;;;;9.02;2.40;;;11.10;99.90;;;;;;5052449;28;20173;-51
2022/11/18 12:34:24;;;;;;;5.95;1.90;;;11.20;99.90;;;;;;5053276;28;20669;-50
2022/11/18 12:36:49;;;;;;;4.32;1.77;;;11.20;99.90;;;;;;5053532;28;20163;-53
2022/11/18 12:39:24;;;;;;;8.38;1.65;;;11.20;99.90;;;;;;5053125;28;20209;-52
2022/11/18 12:45:39;;;;;;;5.72;1.65;;;11.30;99.90;;;;;;5043246;28;20661;-51
2022/11/18 12:48:34;;;;;;;2.85;1.58;;;11.30;99.90;;;;;;5052957;28;20301;-51
2022/11/18 12:51:35;;;;;;;6.05;1.73;;;11.40;99.90;;;;;;5052236;28;20535;-51
2022/11/18 12:54:21;;;;;;;7.43;1.77;;;11.40;99.90;;;;;;5053248;28;20262;-51
2022/11/18 12:56:48;;;;;;;5.68;1.92;;;11.50;99.90;;;;;;5052235;28;20173;-52
2022/11/18 12:59:13;;;;;;;5.50;1.95;;;11.50;99.90;;;;;;5051813;28;20193;-54
2022/11/18 13:01:39;;;;;;;13.10;2.60;;;11.60;99.90;;;;;;5052624;28;20584;-52
2022/11/18 13:04:15;;;;;;;6.38;1.83;;;11.60;99.90;;;;;;5052911;28;20531;-50
2022/11/18 13:06:41;;;;;;;7.03;1.70;;;11.60;99.90;;;;;;5052958;28;20572;-50
2022/11/18 13:09:18;;;;;;;4.85;1.98;;;11.60;99.90;;;;;;5052497;28;20207;-50
2022/11/18 13:11:49;;;;;;;5.35;1.92;;;11.70;99.90;;;;;;5052854;28;20173;-50
2022/11/18 13:17:50;;;;;;;6.28;1.98;;;11.70;99.90;;;;;;5053208;28;20174;-51
2022/11/18 13:20:37;;;;;;;5.35;1.88;;;11.80;99.90;;;;;;5052766;28;20193;-51
2022/11/18 13:26:13;;;;;;;7.13;2.42;;;11.80;99.90;;;;;;5052594;28;20228;-51
2022/11/18 13:28:56;;;;;;;6.85;2.28;;;11.80;99.90;;;;;;5051520;28;20209;-54
2022/11/18 13:31:39;;;;;;;6.28;2.45;;;11.80;99.90;;;;;;5051399;28;20174;-51
2022/11/18 13:34:19;;;;;;;5.07;2.42;;;11.70;99.90;;;;;;5050987;28;20253;-50
2022/11/18 13:36:47;;;;;;;8.27;2.22;;;11.70;99.90;;;;;;5052478;28;20660;-51
2022/11/18 13:39:30;;;;;;;7.43;1.98;;;11.70;99.90;;;;;;5052607;28;20193;-51